Austwell, Texas
Current Conditions -  °F | °C
As of 12:35 AM on Wednesday 26 Nov 2014 (Local Time) from KPKV Reporting Station
Clear Clear  
Wind Chill:   Ceiling: Unl
Heat Index:   Visibility: 10mi
Dew Point:   Wind: 6mph
Humidity: 82%   Direction: 200°SSW
Pressure: 30.25"   Gusts: NA
Location:  28.39°N, 96.84°W
Report Text: KPKV 260635Z AUTO 20005KT 10SM CLR 09/06 A3025 RMK AO2 T00900061
Loading
Personal Weather Stations






























Interactive Weather Map New forecast layout! Learn more

10-Day Weather Forecast

Advertisements
Track Severe Weather on mobile